sensor_id;sensor_type;location;lat;lon;timestamp;pressure;altitude;pressure_sealevel;temperature;humidity
5062;BME280;2351;50.812;12.872;2023-04-28T00:01:19;98052.16;;;4.76;67.13
5062;BME280;2351;50.812;12.872;2023-04-28T00:03:52;98052.03;;;4.77;67.08
5062;BME280;2351;50.812;12.872;2023-04-28T00:06:24;98042.59;;;4.75;66.92
5062;BME280;2351;50.812;12.872;2023-04-28T00:08:56;98046.25;;;4.72;67.28
5062;BME280;2351;50.812;12.872;2023-04-28T00:11:28;98036.88;;;4.68;67.55
5062;BME280;2351;50.812;12.872;2023-04-28T00:13:59;98031.72;;;4.66;67.65
5062;BME280;2351;50.812;12.872;2023-04-28T00:16:31;98032.66;;;4.65;67.77
5062;BME280;2351;50.812;12.872;2023-04-28T00:19:04;98029.38;;;4.62;67.74
5062;BME280;2351;50.812;12.872;2023-04-28T00:21:36;98031.44;;;4.57;68.06
5062;BME280;2351;50.812;12.872;2023-04-28T00:24:08;98026.38;;;4.53;68.24
5062;BME280;2351;50.812;12.872;2023-04-28T00:26:40;98024.88;;;4.49;68.37
5062;BME280;2351;50.812;12.872;2023-04-28T00:29:12;98016.28;;;4.47;68.57
5062;BME280;2351;50.812;12.872;2023-04-28T00:31:43;98022.44;;;4.46;68.87
5062;BME280;2351;50.812;12.872;2023-04-28T00:34:16;98018.72;;;4.50;68.54
5062;BME280;2351;50.812;12.872;2023-04-28T00:36:48;98021.50;;;4.47;68.91
5062;BME280;2351;50.812;12.872;2023-04-28T00:39:20;98010.84;;;4.50;68.81
5062;BME280;2351;50.812;12.872;2023-04-28T00:41:52;98004.84;;;4.48;69.29
5062;BME280;2351;50.812;12.872;2023-04-28T00:44:24;98004.94;;;4.47;69.68
5062;BME280;2351;50.812;12.872;2023-04-28T00:46:56;98002.31;;;4.47;69.58
5062;BME280;2351;50.812;12.872;2023-04-28T00:49:30;97997.91;;;4.47;70.02
5062;BME280;2351;50.812;12.872;2023-04-28T00:52:05;97985.56;;;4.49;69.94
5062;BME280;2351;50.812;12.872;2023-04-28T00:54:37;97988.72;;;4.55;70.00
5062;BME280;2351;50.812;12.872;2023-04-28T00:57:09;97984.81;;;4.62;69.70
5062;BME280;2351;50.812;12.872;2023-04-28T00:59:41;97979.69;;;4.60;69.80
5062;BME280;2351;50.812;12.872;2023-04-28T01:02:13;97976.75;;;4.65;69.63
5062;BME280;2351;50.812;12.872;2023-04-28T01:04:49;97967.66;;;4.71;69.52
5062;BME280;2351;50.812;12.872;2023-04-28T01:07:20;97962.25;;;4.74;69.27
5062;BME280;2351;50.812;12.872;2023-04-28T01:09:52;97969.81;;;4.78;69.19
5062;BME280;2351;50.812;12.872;2023-04-28T01:12:24;97961.88;;;4.80;69.24
5062;BME280;2351;50.812;12.872;2023-04-28T01:14:55;97960.00;;;4.82;69.23
5062;BME280;2351;50.812;12.872;2023-04-28T01:17:27;97965.88;;;4.86;69.16
5062;BME280;2351;50.812;12.872;2023-04-28T01:20:00;97957.81;;;4.89;69.24
5062;BME280;2351;50.812;12.872;2023-04-28T01:22:33;97961.38;;;4.88;69.33
5062;BME280;2351;50.812;12.872;2023-04-28T01:25:07;97956.50;;;4.96;69.13
5062;BME280;2351;50.812;12.872;2023-04-28T01:27:39;97953.03;;;4.95;68.95
5062;BME280;2351;50.812;12.872;2023-04-28T01:30:10;97955.53;;;4.97;69.03
5062;BME280;2351;50.812;12.872;2023-04-28T01:32:42;97960.59;;;5.00;68.96
5062;BME280;2351;50.812;12.872;2023-04-28T01:35:14;97955.34;;;5.00;68.83
5062;BME280;2351;50.812;12.872;2023-04-28T01:37:46;97958.38;;;4.94;68.83
5062;BME280;2351;50.812;12.872;2023-04-28T01:40:19;97950.03;;;4.87;68.80
5062;BME280;2351;50.812;12.872;2023-04-28T01:42:51;97950.31;;;4.82;68.73
5062;BME280;2351;50.812;12.872;2023-04-28T01:45:22;97947.91;;;4.79;68.80
5062;BME280;2351;50.812;12.872;2023-04-28T01:47:54;97948.09;;;4.76;68.92
5062;BME280;2351;50.812;12.872;2023-04-28T01:50:26;97938.75;;;4.72;68.85
5062;BME280;2351;50.812;12.872;2023-04-28T01:52:57;97936.88;;;4.74;68.78
5062;BME280;2351;50.812;12.872;2023-04-28T01:55:31;97934.03;;;4.77;68.84
5062;BME280;2351;50.812;12.872;2023-04-28T01:58:02;97927.84;;;4.78;68.73
5062;BME280;2351;50.812;12.872;2023-04-28T02:00:34;97939.38;;;4.76;68.70
5062;BME280;2351;50.812;12.872;2023-04-28T02:03:06;97933.59;;;4.71;68.72
5062;BME280;2351;50.812;12.872;2023-04-28T02:05:37;97936.50;;;4.66;68.57
5062;BME280;2351;50.812;12.872;2023-04-28T02:08:09;97938.38;;;4.64;68.78
5062;BME280;2351;50.812;12.872;2023-04-28T02:10:42;97931.56;;;4.61;68.64
5062;BME280;2351;50.812;12.872;2023-04-28T02:13:14;97923.13;;;4.56;68.83
5062;BME280;2351;50.812;12.872;2023-04-28T02:15:46;97932.00;;;4.53;68.73
5062;BME280;2351;50.812;12.872;2023-04-28T02:18:18;97924.13;;;4.53;68.70
5062;BME280;2351;50.812;12.872;2023-04-28T02:20:50;97925.94;;;4.53;68.57
5062;BME280;2351;50.812;12.872;2023-04-28T02:23:21;97922.56;;;4.51;68.74
5062;BME280;2351;50.812;12.872;2023-04-28T02:26:00;97914.69;;;4.51;68.81
5062;BME280;2351;50.812;12.872;2023-04-28T02:28:33;97914.69;;;4.51;69.21
5062;BME280;2351;50.812;12.872;2023-04-28T02:31:08;97904.09;;;4.52;68.95
5062;BME280;2351;50.812;12.872;2023-04-28T02:33:40;97899.59;;;4.55;69.05
5062;BME280;2351;50.812;12.872;2023-04-28T02:36:12;97897.72;;;4.57;69.01
5062;BME280;2351;50.812;12.872;2023-04-28T02:38:44;97896.72;;;4.59;69.23
5062;BME280;2351;50.812;12.872;2023-04-28T02:41:17;97894.00;;;4.61;69.29
5062;BME280;2351;50.812;12.872;2023-04-28T02:43:49;97888.66;;;4.62;69.29
5062;BME280;2351;50.812;12.872;2023-04-28T02:46:20;97889.31;;;4.66;69.60
5062;BME280;2351;50.812;12.872;2023-04-28T02:48:52;97891.75;;;4.69;69.54
5062;BME280;2351;50.812;12.872;2023-04-28T02:51:24;97888.19;;;4.70;69.70
5062;BME280;2351;50.812;12.872;2023-04-28T02:53:56;97895.09;;;4.71;69.83
5062;BME280;2351;50.812;12.872;2023-04-28T02:56:29;97890.69;;;4.72;69.82
5062;BME280;2351;50.812;12.872;2023-04-28T02:59:01;97894.25;;;4.71;69.99
5062;BME280;2351;50.812;12.872;2023-04-28T03:01:33;97899.50;;;4.71;70.17
5062;BME280;2351;50.812;12.872;2023-04-28T03:04:04;97889.88;;;4.71;70.19
5062;BME280;2351;50.812;12.872;2023-04-28T03:06:37;97886.09;;;4.75;70.27
5062;BME280;2351;50.812;12.872;2023-04-28T03:09:09;97892.94;;;4.78;70.17
5062;BME280;2351;50.812;12.872;2023-04-28T03:11:43;97886.63;;;4.80;70.44
5062;BME280;2351;50.812;12.872;2023-04-28T03:14:15;97883.00;;;4.83;70.61
5062;BME280;2351;50.812;12.872;2023-04-28T03:16:46;97883.75;;;4.85;70.88
5062;BME280;2351;50.812;12.872;2023-04-28T03:19:18;97875.88;;;4.85;70.92
5062;BME280;2351;50.812;12.872;2023-04-28T03:21:50;97871.34;;;4.87;70.81
5062;BME280;2351;50.812;12.872;2023-04-28T03:24:21;97869.47;;;4.89;70.94
5062;BME280;2351;50.812;12.872;2023-04-28T03:26:55;97876.41;;;4.90;71.14
5062;BME280;2351;50.812;12.872;2023-04-28T03:29:26;97873.69;;;4.92;71.15
5062;BME280;2351;50.812;12.872;2023-04-28T03:31:58;97863.09;;;4.93;71.11
5062;BME280;2351;50.812;12.872;2023-04-28T03:34:30;97867.31;;;4.96;71.17
5062;BME280;2351;50.812;12.872;2023-04-28T03:37:01;97865.41;;;4.98;71.30
5062;BME280;2351;50.812;12.872;2023-04-28T03:39:33;97862.72;;;5.00;71.46
5062;BME280;2351;50.812;12.872;2023-04-28T03:42:06;97858.28;;;5.00;71.59
5062;BME280;2351;50.812;12.872;2023-04-28T03:44:38;97853.03;;;5.00;71.60
5062;BME280;2351;50.812;12.872;2023-04-28T03:47:09;97857.34;;;5.01;71.66
5062;BME280;2351;50.812;12.872;2023-04-28T03:49:41;97854.72;;;5.01;71.78
5062;BME280;2351;50.812;12.872;2023-04-28T03:52:13;97856.41;;;5.02;71.83
5062;BME280;2351;50.812;12.872;2023-04-28T03:54:45;97851.91;;;5.04;71.81
5062;BME280;2351;50.812;12.872;2023-04-28T03:57:18;97846.59;;;5.06;71.99
5062;BME280;2351;50.812;12.872;2023-04-28T03:59:50;97844.78;;;5.06;71.99
5062;BME280;2351;50.812;12.872;2023-04-28T04:02:21;97839.53;;;5.06;72.23
5062;BME280;2351;50.812;12.872;2023-04-28T04:04:53;97833.34;;;5.07;72.22
5062;BME280;2351;50.812;12.872;2023-04-28T04:07:25;97831.47;;;5.09;72.48
5062;BME280;2351;50.812;12.872;2023-04-28T04:09:57;97826.97;;;5.11;72.48
5062;BME280;2351;50.812;12.872;2023-04-28T04:12:30;97826.84;;;5.13;72.48
5062;BME280;2351;50.812;12.872;2023-04-28T04:15:02;97821.72;;;5.11;72.58
5062;BME280;2351;50.812;12.872;2023-04-28T04:17:34;97822.53;;;5.12;72.60
5062;BME280;2351;50.812;12.872;2023-04-28T04:20:07;97825.16;;;5.12;72.68
5062;BME280;2351;50.812;12.872;2023-04-28T04:22:38;97813.75;;;5.13;72.69
5062;BME280;2351;50.812;12.872;2023-04-28T04:25:10;97811.97;;;5.13;72.97
5062;BME280;2351;50.812;12.872;2023-04-28T04:27:43;97809.97;;;5.17;72.95
5062;BME280;2351;50.812;12.872;2023-04-28T04:30:16;97808.91;;;5.20;72.89
5062;BME280;2351;50.812;12.872;2023-04-28T04:32:47;97813.22;;;5.21;73.30
5062;BME280;2351;50.812;12.872;2023-04-28T04:35:19;97807.78;;;5.24;73.13
5062;BME280;2351;50.812;12.872;2023-04-28T04:37:51;97806.75;;;5.26;73.08
5062;BME280;2351;50.812;12.872;2023-04-28T04:40:23;97799.50;;;5.30;73.40
5062;BME280;2351;50.812;12.872;2023-04-28T04:42:56;97803.59;;;5.34;73.36
5062;BME280;2351;50.812;12.872;2023-04-28T04:45:29;97805.91;;;5.39;73.31
5062;BME280;2351;50.812;12.872;2023-04-28T04:48:01;97800.78;;;5.37;73.36
5062;BME280;2351;50.812;12.872;2023-04-28T04:50:33;97799.72;;;5.40;73.58
5062;BME280;2351;50.812;12.872;2023-04-28T04:53:04;97796.91;;;5.43;73.78
5062;BME280;2351;50.812;12.872;2023-04-28T04:55:36;97793.88;;;5.49;73.84
5062;BME280;2351;50.812;12.872;2023-04-28T04:58:09;97793.34;;;5.57;74.05
5062;BME280;2351;50.812;12.872;2023-04-28T05:00:42;97800.50;;;5.68;74.15
5062;BME280;2351;50.812;12.872;2023-04-28T05:03:13;97791.13;;;5.77;74.28
5062;BME280;2351;50.812;12.872;2023-04-28T05:05:45;97784.28;;;5.87;74.48
5062;BME280;2351;50.812;12.872;2023-04-28T05:08:17;97780.19;;;5.96;74.57
5062;BME280;2351;50.812;12.872;2023-04-28T05:10:49;97785.69;;;6.06;74.98
5062;BME280;2351;50.812;12.872;2023-04-28T05:13:22;97787.78;;;6.13;75.11
5062;BME280;2351;50.812;12.872;2023-04-28T05:15:54;97780.28;;;6.20;75.02
5062;BME280;2351;50.812;12.872;2023-04-28T05:18:26;97776.28;;;6.27;75.28
5062;BME280;2351;50.812;12.872;2023-04-28T05:20:57;97767.94;;;6.33;75.53
5062;BME280;2351;50.812;12.872;2023-04-28T05:23:30;97775.28;;;6.41;75.37
5062;BME280;2351;50.812;12.872;2023-04-28T05:26:03;97776.53;;;6.48;75.64
5062;BME280;2351;50.812;12.872;2023-04-28T05:28:36;97781.22;;;6.56;75.53
5062;BME280;2351;50.812;12.872;2023-04-28T05:31:07;97770.13;;;6.64;75.58
5062;BME280;2351;50.812;12.872;2023-04-28T05:33:39;97776.63;;;6.71;75.79
5062;BME280;2351;50.812;12.872;2023-04-28T05:36:11;97772.50;;;6.80;75.88
5062;BME280;2351;50.812;12.872;2023-04-28T05:38:46;97775.41;;;6.88;75.72
5062;BME280;2351;50.812;12.872;2023-04-28T05:41:17;97776.63;;;6.96;75.71
5062;BME280;2351;50.812;12.872;2023-04-28T05:43:50;97775.13;;;7.04;76.05
5062;BME280;2351;50.812;12.872;2023-04-28T05:46:22;97778.22;;;7.09;76.09
5062;BME280;2351;50.812;12.872;2023-04-28T05:48:54;97774.31;;;7.15;75.88
5062;BME280;2351;50.812;12.872;2023-04-28T05:51:25;97769.66;;;7.19;75.90
5062;BME280;2351;50.812;12.872;2023-04-28T05:53:57;97770.03;;;7.26;75.75
5062;BME280;2351;50.812;12.872;2023-04-28T05:56:29;97774.84;;;7.32;76.08
5062;BME280;2351;50.812;12.872;2023-04-28T05:59:02;97768.16;;;7.39;76.18
5062;BME280;2351;50.812;12.872;2023-04-28T06:01:34;97759.69;;;7.47;76.21
5062;BME280;2351;50.812;12.872;2023-04-28T06:04:06;97758.13;;;7.56;76.04
5062;BME280;2351;50.812;12.872;2023-04-28T06:06:38;97757.06;;;7.69;76.79
5062;BME280;2351;50.812;12.872;2023-04-28T06:09:10;97744.13;;;7.78;76.59
5062;BME280;2351;50.812;12.872;2023-04-28T06:11:41;97745.34;;;7.85;76.30
5062;BME280;2351;50.812;12.872;2023-04-28T06:14:15;97741.00;;;7.95;76.73
5062;BME280;2351;50.812;12.872;2023-04-28T06:16:47;97747.97;;;8.08;76.75
5062;BME280;2351;50.812;12.872;2023-04-28T06:19:19;97748.78;;;8.20;76.67
5062;BME280;2351;50.812;12.872;2023-04-28T06:21:50;97750.19;;;8.35;76.73
5062;BME280;2351;50.812;12.872;2023-04-28T06:24:22;97746.59;;;8.48;76.48
5062;BME280;2351;50.812;12.872;2023-04-28T06:26:54;97742.72;;;8.63;77.10
5062;BME280;2351;50.812;12.872;2023-04-28T06:29:28;97744.00;;;8.80;76.87
5062;BME280;2351;50.812;12.872;2023-04-28T06:32:00;97740.91;;;8.96;77.07
5062;BME280;2351;50.812;12.872;2023-04-28T06:34:32;97731.84;;;9.10;76.79
5062;BME280;2351;50.812;12.872;2023-04-28T06:37:04;97729.72;;;9.25;76.79
5062;BME280;2351;50.812;12.872;2023-04-28T06:39:36;97731.66;;;9.44;76.81
5062;BME280;2351;50.812;12.872;2023-04-28T06:42:07;97720.59;;;9.60;76.38
5062;BME280;2351;50.812;12.872;2023-04-28T06:44:41;97724.44;;;9.77;75.41
5062;BME280;2351;50.812;12.872;2023-04-28T06:47:13;97728.53;;;9.91;74.64
5062;BME280;2351;50.812;12.872;2023-04-28T06:49:44;97735.81;;;10.09;74.32
5062;BME280;2351;50.812;12.872;2023-04-28T06:52:19;97731.16;;;10.22;71.00
5062;BME280;2351;50.812;12.872;2023-04-28T06:54:51;97724.50;;;10.38;71.95
5062;BME280;2351;50.812;12.872;2023-04-28T06:57:23;97724.97;;;10.63;72.01
5062;BME280;2351;50.812;12.872;2023-04-28T06:59:56;97724.13;;;10.72;68.43
5062;BME280;2351;50.812;12.872;2023-04-28T07:02:28;97712.88;;;10.99;69.35
5062;BME280;2351;50.812;12.872;2023-04-28T07:04:59;97725.94;;;11.21;67.67
5062;BME280;2351;50.812;12.872;2023-04-28T07:07:31;97720.34;;;11.24;64.85
5062;BME280;2351;50.812;12.872;2023-04-28T07:10:04;97713.38;;;11.33;59.75
5062;BME280;2351;50.812;12.872;2023-04-28T07:12:35;97706.13;;;11.35;58.68
5062;BME280;2351;50.812;12.872;2023-04-28T07:15:09;97706.50;;;11.50;58.19
5062;BME280;2351;50.812;12.872;2023-04-28T07:17:41;97707.88;;;11.54;55.52
5062;BME280;2351;50.812;12.872;2023-04-28T07:20:13;97697.94;;;11.66;56.51
5062;BME280;2351;50.812;12.872;2023-04-28T07:22:45;97707.91;;;11.82;57.50
5062;BME280;2351;50.812;12.872;2023-04-28T07:25:16;97694.19;;;11.96;57.25
5062;BME280;2351;50.812;12.872;2023-04-28T07:27:48;97694.84;;;12.08;57.16
5062;BME280;2351;50.812;12.872;2023-04-28T07:30:22;97690.78;;;12.14;55.70
5062;BME280;2351;50.812;12.872;2023-04-28T07:32:54;97695.19;;;12.23;56.33
5062;BME280;2351;50.812;12.872;2023-04-28T07:35:25;97686.31;;;12.32;56.19
5062;BME280;2351;50.812;12.872;2023-04-28T07:37:57;97694.78;;;12.46;56.48
5062;BME280;2351;50.812;12.872;2023-04-28T07:40:29;97689.63;;;12.62;56.35
5062;BME280;2351;50.812;12.872;2023-04-28T07:43:01;97690.44;;;12.81;56.77
5062;BME280;2351;50.812;12.872;2023-04-28T07:45:36;97688.38;;;12.93;56.16
5062;BME280;2351;50.812;12.872;2023-04-28T07:48:08;97685.81;;;13.01;56.27
5062;BME280;2351;50.812;12.872;2023-04-28T07:50:40;97687.59;;;13.19;54.91
5062;BME280;2351;50.812;12.872;2023-04-28T07:53:12;97693.03;;;13.17;54.75
5062;BME280;2351;50.812;12.872;2023-04-28T07:55:43;97699.34;;;13.16;54.24
5062;BME280;2351;50.812;12.872;2023-04-28T07:58:15;97703.97;;;13.14;54.12
5062;BME280;2351;50.812;12.872;2023-04-28T08:00:48;97694.03;;;13.16;53.82
5062;BME280;2351;50.812;12.872;2023-04-28T08:03:20;97692.22;;;13.17;54.11
5062;BME280;2351;50.812;12.872;2023-04-28T08:05:52;97690.78;;;13.22;54.12
5062;BME280;2351;50.812;12.872;2023-04-28T08:08:23;97694.94;;;13.25;53.90
5062;BME280;2351;50.812;12.872;2023-04-28T08:10:55;97698.25;;;13.27;54.08
5062;BME280;2351;50.812;12.872;2023-04-28T08:13:28;97694.63;;;13.28;53.87
5062;BME280;2351;50.812;12.872;2023-04-28T08:16:01;97689.09;;;13.21;53.73
5062;BME280;2351;50.812;12.872;2023-04-28T08:18:33;97685.97;;;13.26;52.43
5062;BME280;2351;50.812;12.872;2023-04-28T08:21:05;97689.72;;;13.15;52.99
5062;BME280;2351;50.812;12.872;2023-04-28T08:23:36;97695.03;;;13.15;53.34
5062;BME280;2351;50.812;12.872;2023-04-28T08:26:08;97691.06;;;13.19;53.39
5062;BME280;2351;50.812;12.872;2023-04-28T08:28:40;97697.25;;;13.20;53.57
5062;BME280;2351;50.812;12.872;2023-04-28T08:31:14;97701.56;;;13.21;53.42
5062;BME280;2351;50.812;12.872;2023-04-28T08:33:45;97696.38;;;13.19;53.77
5062;BME280;2351;50.812;12.872;2023-04-28T08:36:20;97683.28;;;13.18;53.72
5062;BME280;2351;50.812;12.872;2023-04-28T08:38:52;97687.19;;;13.32;52.86
5062;BME280;2351;50.812;12.872;2023-04-28T08:41:24;97684.53;;;13.32;53.10
5062;BME280;2351;50.812;12.872;2023-04-28T08:43:57;97692.84;;;13.37;53.72
5062;BME280;2351;50.812;12.872;2023-04-28T08:46:30;97696.44;;;13.46;53.37
5062;BME280;2351;50.812;12.872;2023-04-28T08:49:05;97691.66;;;13.49;53.77
5062;BME280;2351;50.812;12.872;2023-04-28T08:51:43;97693.31;;;13.50;53.69
5062;BME280;2351;50.812;12.872;2023-04-28T08:54:17;97693.81;;;13.54;53.77
5062;BME280;2351;50.812;12.872;2023-04-28T08:56:49;97694.44;;;13.48;53.42
5062;BME280;2351;50.812;12.872;2023-04-28T08:59:22;97692.72;;;13.38;53.57
5062;BME280;2351;50.812;12.872;2023-04-28T09:01:55;97701.50;;;13.39;53.33
5062;BME280;2351;50.812;12.872;2023-04-28T09:04:28;97682.78;;;13.22;53.38
5062;BME280;2351;50.812;12.872;2023-04-28T09:07:00;97690.56;;;13.16;54.00
5062;BME280;2351;50.812;12.872;2023-04-28T09:09:32;97689.03;;;13.13;53.67
5062;BME280;2351;50.812;12.872;2023-04-28T09:12:03;97697.84;;;13.14;53.97
5062;BME280;2351;50.812;12.872;2023-04-28T09:14:36;97700.34;;;13.15;54.11
5062;BME280;2351;50.812;12.872;2023-04-28T09:17:11;97703.38;;;13.20;54.38
5062;BME280;2351;50.812;12.872;2023-04-28T09:19:43;97704.06;;;13.22;53.67
5062;BME280;2351;50.812;12.872;2023-04-28T09:22:14;97707.50;;;13.15;54.07
5062;BME280;2351;50.812;12.872;2023-04-28T09:24:46;97714.09;;;13.10;54.53
5062;BME280;2351;50.812;12.872;2023-04-28T09:27:25;97711.75;;;13.07;54.97
5062;BME280;2351;50.812;12.872;2023-04-28T09:29:57;97711.34;;;13.02;55.42
5062;BME280;2351;50.812;12.872;2023-04-28T09:32:30;97699.69;;;12.95;56.10
5062;BME280;2351;50.812;12.872;2023-04-28T09:35:03;97705.91;;;12.86;56.45
5062;BME280;2351;50.812;12.872;2023-04-28T09:37:36;97704.72;;;12.80;57.00
5062;BME280;2351;50.812;12.872;2023-04-28T09:40:09;97696.22;;;12.76;57.38
5062;BME280;2351;50.812;12.872;2023-04-28T09:42:42;97703.34;;;12.76;58.06
5062;BME280;2351;50.812;12.872;2023-04-28T09:45:15;97705.00;;;12.77;58.55
5062;BME280;2351;50.812;12.872;2023-04-28T09:47:48;97698.88;;;12.76;58.91
5062;BME280;2351;50.812;12.872;2023-04-28T09:50:20;97702.22;;;12.78;59.17
5062;BME280;2351;50.812;12.872;2023-04-28T09:52:55;97706.97;;;12.75;59.59
5062;BME280;2351;50.812;12.872;2023-04-28T09:55:29;97709.41;;;12.68;59.91
5062;BME280;2351;50.812;12.872;2023-04-28T09:58:04;97709.72;;;12.65;60.36
5062;BME280;2351;50.812;12.872;2023-04-28T10:00:38;97707.34;;;12.62;60.50
5062;BME280;2351;50.812;12.872;2023-04-28T10:03:13;97706.84;;;12.58;61.01
5062;BME280;2351;50.812;12.872;2023-04-28T10:05:46;97702.28;;;12.50;61.21
5062;BME280;2351;50.812;12.872;2023-04-28T10:08:18;97704.53;;;12.45;62.13
5062;BME280;2351;50.812;12.872;2023-04-28T10:10:52;97707.66;;;12.41;62.45
5062;BME280;2351;50.812;12.872;2023-04-28T10:13:24;97707.56;;;12.32;62.70
5062;BME280;2351;50.812;12.872;2023-04-28T10:15:56;97711.69;;;12.17;63.13
5062;BME280;2351;50.812;12.872;2023-04-28T10:18:29;97714.13;;;12.10;63.53
5062;BME280;2351;50.812;12.872;2023-04-28T10:21:03;97714.56;;;11.96;63.62
5062;BME280;2351;50.812;12.872;2023-04-28T10:24:08;97711.78;;;11.97;64.47
5062;BME280;2351;50.812;12.872;2023-04-28T10:27:01;97713.44;;;11.98;64.87
5062;BME280;2351;50.812;12.872;2023-04-28T10:29:34;97715.16;;;11.99;65.23
5062;BME280;2351;50.812;12.872;2023-04-28T10:32:20;97719.16;;;12.03;65.86
5062;BME280;2351;50.812;12.872;2023-04-28T10:35:39;97707.19;;;11.99;66.11
5062;BME280;2351;50.812;12.872;2023-04-28T10:38:12;97707.22;;;11.89;66.56
5062;BME280;2351;50.812;12.872;2023-04-28T10:40:45;97704.44;;;11.81;67.02
5062;BME280;2351;50.812;12.872;2023-04-28T10:43:32;97706.28;;;11.71;67.57
5062;BME280;2351;50.812;12.872;2023-04-28T10:46:09;97701.00;;;11.61;68.22
5062;BME280;2351;50.812;12.872;2023-04-28T10:49:02;97694.63;;;11.54;68.72
5062;BME280;2351;50.812;12.872;2023-04-28T10:51:35;97694.34;;;11.57;69.12
5062;BME280;2351;50.812;12.872;2023-04-28T10:54:13;97696.56;;;11.62;69.62
5062;BME280;2351;50.812;12.872;2023-04-28T10:57:14;97679.53;;;11.64;70.11
5062;BME280;2351;50.812;12.872;2023-04-28T10:59:47;97675.88;;;11.65;70.36
5062;BME280;2351;50.812;12.872;2023-04-28T11:02:39;97674.38;;;11.63;70.90
5062;BME280;2351;50.812;12.872;2023-04-28T11:05:16;97664.75;;;11.62;71.73
5062;BME280;2351;50.812;12.872;2023-04-28T11:11:21;97665.16;;;11.67;72.29
5062;BME280;2351;50.812;12.872;2023-04-28T11:13:55;97663.56;;;11.74;75.70
5062;BME280;2351;50.812;12.872;2023-04-28T11:16:47;97661.25;;;11.61;78.50
5062;BME280;2351;50.812;12.872;2023-04-28T11:19:20;97663.16;;;11.41;80.64
5062;BME280;2351;50.812;12.872;2023-04-28T11:21:55;97660.94;;;11.36;81.63
5062;BME280;2351;50.812;12.872;2023-04-28T11:24:28;97659.56;;;11.32;82.01
5062;BME280;2351;50.812;12.872;2023-04-28T11:27:01;97662.91;;;11.34;81.85
5062;BME280;2351;50.812;12.872;2023-04-28T11:29:34;97651.41;;;11.43;82.37
5062;BME280;2351;50.812;12.872;2023-04-28T11:32:07;97650.69;;;11.51;83.49
5062;BME280;2351;50.812;12.872;2023-04-28T11:34:39;97658.94;;;11.48;82.20
5062;BME280;2351;50.812;12.872;2023-04-28T11:37:14;97656.97;;;11.50;82.05
5062;BME280;2351;50.812;12.872;2023-04-28T11:39:46;97652.53;;;11.51;81.78
5062;BME280;2351;50.812;12.872;2023-04-28T11:42:19;97640.38;;;11.48;81.57
5062;BME280;2351;50.812;12.872;2023-04-28T11:44:51;97644.69;;;11.49;81.92
5062;BME280;2351;50.812;12.872;2023-04-28T11:47:29;97652.22;;;11.54;81.92
5062;BME280;2351;50.812;12.872;2023-04-28T11:50:02;97649.84;;;11.60;82.17
5062;BME280;2351;50.812;12.872;2023-04-28T11:52:34;97647.63;;;11.56;81.98
5062;BME280;2351;50.812;12.872;2023-04-28T11:55:06;97647.19;;;11.60;81.80
5062;BME280;2351;50.812;12.872;2023-04-28T11:57:41;97650.22;;;11.66;81.91
5062;BME280;2351;50.812;12.872;2023-04-28T12:00:13;97649.38;;;11.65;80.95
5062;BME280;2351;50.812;12.872;2023-04-28T12:02:48;97642.84;;;11.59;81.30
5062;BME280;2351;50.812;12.872;2023-04-28T12:05:20;97634.22;;;11.57;81.40
5062;BME280;2351;50.812;12.872;2023-04-28T12:07:52;97635.88;;;11.58;82.01
5062;BME280;2351;50.812;12.872;2023-04-28T12:10:24;97629.50;;;11.51;82.05
5062;BME280;2351;50.812;12.872;2023-04-28T12:12:57;97636.56;;;11.60;82.35
5062;BME280;2351;50.812;12.872;2023-04-28T12:15:39;97639.19;;;11.70;82.41
5062;BME280;2351;50.812;12.872;2023-04-28T12:18:11;97631.19;;;11.80;82.79
5062;BME280;2351;50.812;12.872;2023-04-28T12:20:45;97631.13;;;11.90;83.13
5062;BME280;2351;50.812;12.872;2023-04-28T12:23:28;97629.16;;;11.92;82.96
5062;BME280;2351;50.812;12.872;2023-04-28T12:26:01;97624.16;;;11.89;82.80
5062;BME280;2351;50.812;12.872;2023-04-28T12:28:38;97617.75;;;11.92;82.97
5062;BME280;2351;50.812;12.872;2023-04-28T12:31:10;97615.59;;;11.95;84.06
5062;BME280;2351;50.812;12.872;2023-04-28T12:33:43;97614.19;;;12.01;83.22
5062;BME280;2351;50.812;12.872;2023-04-28T12:36:15;97599.75;;;12.13;83.02
5062;BME280;2351;50.812;12.872;2023-04-28T12:38:47;97604.75;;;12.16;83.04
5062;BME280;2351;50.812;12.872;2023-04-28T12:41:19;97604.66;;;12.26;82.99
5062;BME280;2351;50.812;12.872;2023-04-28T12:43:52;97601.88;;;12.28;82.88
5062;BME280;2351;50.812;12.872;2023-04-28T12:46:24;97592.09;;;12.28;82.52
5062;BME280;2351;50.812;12.872;2023-04-28T12:48:55;97598.25;;;12.29;82.80
5062;BME280;2351;50.812;12.872;2023-04-28T12:51:27;97595.13;;;12.33;82.63
5062;BME280;2351;50.812;12.872;2023-04-28T12:53:59;97587.16;;;12.33;82.38
5062;BME280;2351;50.812;12.872;2023-04-28T12:56:31;97586.94;;;12.45;82.64
5062;BME280;2351;50.812;12.872;2023-04-28T12:59:04;97584.25;;;12.63;83.52
5062;BME280;2351;50.812;12.872;2023-04-28T13:01:36;97591.47;;;12.53;75.09
5062;BME280;2351;50.812;12.872;2023-04-28T13:04:08;97586.34;;;12.33;78.78
5062;BME280;2351;50.812;12.872;2023-04-28T13:06:40;97586.25;;;12.43;79.01
5062;BME280;2351;50.812;12.872;2023-04-28T13:09:13;97581.63;;;12.27;76.97
5062;BME280;2351;50.812;12.872;2023-04-28T13:11:45;97579.75;;;12.19;77.10
5062;BME280;2351;50.812;12.872;2023-04-28T13:14:18;97581.69;;;11.99;75.50
5062;BME280;2351;50.812;12.872;2023-04-28T13:16:51;97585.59;;;11.95;76.08
5062;BME280;2351;50.812;12.872;2023-04-28T13:19:23;97582.00;;;11.86;75.86
5062;BME280;2351;50.812;12.872;2023-04-28T13:21:55;97584.38;;;11.61;75.21
5062;BME280;2351;50.812;12.872;2023-04-28T13:24:26;97571.06;;;11.53;75.55
5062;BME280;2351;50.812;12.872;2023-04-28T13:26:59;97579.84;;;11.15;76.15
5062;BME280;2351;50.812;12.872;2023-04-28T13:29:32;97576.53;;;11.13;77.66
5062;BME280;2351;50.812;12.872;2023-04-28T13:32:04;97575.88;;;11.29;77.16
5062;BME280;2351;50.812;12.872;2023-04-28T13:34:36;97571.41;;;11.40;77.09
5062;BME280;2351;50.812;12.872;2023-04-28T13:37:08;97573.50;;;11.36;76.83
5062;BME280;2351;50.812;12.872;2023-04-28T13:39:40;97558.94;;;11.22;76.22
5062;BME280;2351;50.812;12.872;2023-04-28T13:42:11;97564.72;;;11.36;76.10
5062;BME280;2351;50.812;12.872;2023-04-28T13:44:44;97566.44;;;11.27;76.09
5062;BME280;2351;50.812;12.872;2023-04-28T13:47:18;97561.09;;;10.99;75.96
5062;BME280;2351;50.812;12.872;2023-04-28T13:49:50;97550.41;;;10.91;76.53
5062;BME280;2351;50.812;12.872;2023-04-28T13:52:21;97549.81;;;10.97;76.96